Time;durP1;ratioP1;P1;durP2;ratioP2;P2;SDS_P1;SDS_P2;PMS_P1;PMS_P2;Temp;Humidity;BMP_temperature;BMP_pressure;BME280_temperature;BME280_humidity;BME280_pressure;Samples;Min_cycle;Max_cycle;Signal;HPM_P1;HPM_P2
2023/01/24 00:00:30;;;;;;;40.13;19.27;;;;;;;;;;5039687;28;20229;-68
2023/01/24 00:02:56;;;;;;;35.40;19.20;;;;;;;;;;5019800;28;20220;-68
2023/01/24 00:05:21;;;;;;;35.00;18.93;;;;;;;;;;5025005;28;20195;-68
2023/01/24 00:07:46;;;;;;;38.07;20.43;;;;;;;;;;5025791;28;20550;-69
2023/01/24 00:10:12;;;;;;;34.73;18.43;;;;;;;;;;5015775;28;20278;-69
2023/01/24 00:12:37;;;;;;;38.93;20.57;;;;;;;;;;5019648;28;20186;-69
2023/01/24 00:15:03;;;;;;;35.50;18.33;;;;;;;;;;5026785;28;21340;-69
2023/01/24 00:17:29;;;;;;;35.40;18.57;;;;;;;;;;5023529;28;20292;-69
2023/01/24 00:19:54;;;;;;;36.13;18.80;;;;;;;;;;5039328;28;20587;-69
2023/01/24 00:22:20;;;;;;;34.73;18.50;;;;;;;;;;5019481;28;20416;-69
2023/01/24 00:24:45;;;;;;;30.10;17.40;;;;;;;;;;5031478;28;20183;-69
2023/01/24 00:27:11;;;;;;;34.00;17.47;;;;;;;;;;5018924;28;20233;-69
2023/01/24 00:29:36;;;;;;;32.77;17.50;;;;;;;;;;5034947;28;20190;-69
2023/01/24 00:32:02;;;;;;;30.43;17.13;;;;;;;;;;5038840;28;20225;-69
2023/01/24 00:34:27;;;;;;;35.10;18.60;;;;;;;;;;5030198;28;20188;-69
2023/01/24 00:36:52;;;;;;;34.70;16.73;;;;;;;;;;5029302;28;20186;-69
2023/01/24 00:39:18;;;;;;;30.50;17.00;;;;;;;;;;5034335;28;20185;-69
2023/01/24 00:41:43;;;;;;;28.70;16.07;;;;;;;;;;5027678;28;20204;-69
2023/01/24 00:44:09;;;;;;;34.47;17.13;;;;;;;;;;5026637;28;20209;-73
2023/01/24 00:46:35;;;;;;;33.03;16.47;;;;;;;;;;5028226;28;20658;-69
2023/01/24 00:49:00;;;;;;;27.73;15.90;;;;;;;;;;5026664;28;20193;-69
2023/01/24 00:51:26;;;;;;;30.03;15.83;;;;;;;;;;5027681;28;20591;-70
2023/01/24 00:53:51;;;;;;;29.73;15.33;;;;;;;;;;5029536;28;20205;-69
2023/01/24 00:56:16;;;;;;;32.50;17.17;;;;;;;;;;5032462;28;20190;-69
2023/01/24 00:58:42;;;;;;;28.00;16.03;;;;;;;;;;5033747;28;20190;-69
2023/01/24 01:01:07;;;;;;;32.87;16.97;;;;;;;;;;5027992;28;20190;-69
2023/01/24 01:03:33;;;;;;;30.63;16.53;;;;;;;;;;5022231;28;20186;-69
2023/01/24 01:06:04;;;;;;;28.37;16.07;;;;;;;;;;5023370;28;20182;-69
2023/01/24 01:08:29;;;;;;;28.40;15.53;;;;;;;;;;5024704;28;20563;-69
2023/01/24 01:10:55;;;;;;;27.77;16.23;;;;;;;;;;5026426;28;20304;-69
2023/01/24 01:13:20;;;;;;;23.07;14.50;;;;;;;;;;5027679;28;20568;-69
2023/01/24 01:15:46;;;;;;;27.97;15.30;;;;;;;;;;5017904;28;20307;-69
2023/01/24 01:18:11;;;;;;;24.47;15.00;;;;;;;;;;5027544;28;20232;-69
2023/01/24 01:20:36;;;;;;;27.83;15.07;;;;;;;;;;5020756;28;20658;-69
2023/01/24 01:23:02;;;;;;;24.77;14.50;;;;;;;;;;5026131;28;20185;-69
2023/01/24 01:25:27;;;;;;;20.90;12.83;;;;;;;;;;5025213;28;20229;-69
2023/01/24 01:27:53;;;;;;;22.40;13.43;;;;;;;;;;5024181;28;20633;-69
2023/01/24 01:30:18;;;;;;;22.77;13.50;;;;;;;;;;5024556;28;20205;-68
2023/01/24 01:32:44;;;;;;;23.27;13.87;;;;;;;;;;5017369;28;20190;-68
2023/01/24 01:35:09;;;;;;;22.37;13.97;;;;;;;;;;5029009;28;20193;-69
2023/01/24 01:37:35;;;;;;;22.70;14.00;;;;;;;;;;5028741;28;20266;-68
2023/01/24 01:40:01;;;;;;;22.90;13.63;;;;;;;;;;5038813;28;20197;-68
2023/01/24 01:42:39;;;;;;;24.73;15.07;;;;;;;;;;5008027;28;20563;-69
2023/01/24 01:45:29;;;;;;;22.43;14.00;;;;;;;;;;5026079;28;20271;-68
2023/01/24 01:47:55;;;;;;;22.80;13.47;;;;;;;;;;5027368;28;20186;-70
2023/01/24 01:50:29;;;;;;;22.97;14.00;;;;;;;;;;5025254;28;20351;-67
2023/01/24 01:52:56;;;;;;;23.53;14.87;;;;;;;;;;5028773;28;20331;-67
2023/01/24 01:55:27;;;;;;;22.17;14.03;;;;;;;;;;5032294;28;20195;-68
2023/01/24 01:57:53;;;;;;;25.17;15.10;;;;;;;;;;5023449;28;20206;-68
2023/01/24 02:00:21;;;;;;;24.37;14.63;;;;;;;;;;5002237;28;20603;-71
2023/01/24 02:02:52;;;;;;;22.80;13.73;;;;;;;;;;5029436;28;20267;-69
2023/01/24 02:05:22;;;;;;;22.60;13.87;;;;;;;;;;5030746;28;20202;-68
2023/01/24 02:08:01;;;;;;;22.43;13.53;;;;;;;;;;5013120;28;20183;-68
2023/01/24 02:11:37;;;;;;;23.40;13.63;;;;;;;;;;5021708;28;20237;-70
2023/01/24 02:13:13;;;;;;;21.47;13.37;;;;;;;;;;5023764;28;21048;-69
2023/01/24 02:18:22;;;;;;;24.57;15.07;;;;;;;;;;5026729;28;20225;-68
2023/01/24 02:20:48;;;;;;;22.67;14.13;;;;;;;;;;5033555;28;20269;-68
2023/01/24 02:23:32;;;;;;;25.17;15.23;;;;;;;;;;5037951;28;20186;-68
2023/01/24 02:26:00;;;;;;;24.00;14.53;;;;;;;;;;5033517;28;20218;-70
2023/01/24 02:28:26;;;;;;;24.10;14.70;;;;;;;;;;5028957;28;20190;-68
2023/01/24 02:30:52;;;;;;;22.17;13.70;;;;;;;;;;5013593;28;20230;-68
2023/01/24 02:33:19;;;;;;;23.70;14.07;;;;;;;;;;5018068;28;20193;-68
2023/01/24 02:35:46;;;;;;;20.80;12.90;;;;;;;;;;5026413;28;20464;-69
2023/01/24 02:38:27;;;;;;;21.77;13.60;;;;;;;;;;5029707;28;20210;-69
2023/01/24 02:40:56;;;;;;;20.90;13.40;;;;;;;;;;5026131;28;20226;-69
2023/01/24 02:43:25;;;;;;;23.13;14.27;;;;;;;;;;5031169;28;20273;-68
2023/01/24 02:45:50;;;;;;;22.43;13.77;;;;;;;;;;5028628;28;20224;-68
2023/01/24 02:48:16;;;;;;;21.53;13.37;;;;;;;;;;5028711;28;20580;-68
2023/01/24 02:53:31;;;;;;;22.60;13.70;;;;;;;;;;5021645;28;20232;-68
2023/01/24 02:58:46;;;;;;;20.03;12.23;;;;;;;;;;5029239;28;20276;-69
2023/01/24 03:01:14;;;;;;;19.73;12.30;;;;;;;;;;5026479;28;20344;-69
2023/01/24 03:03:41;;;;;;;21.60;13.17;;;;;;;;;;5023478;28;20225;-69
2023/01/24 03:06:07;;;;;;;22.60;12.93;;;;;;;;;;5018232;28;20674;-68
2023/01/24 03:08:33;;;;;;;21.30;13.40;;;;;;;;;;5029672;28;20351;-68
2023/01/24 03:10:59;;;;;;;22.03;13.63;;;;;;;;;;5026828;28;20237;-69
2023/01/24 03:35:18;;;;;;;24.10;13.87;;;;;;;;;;5029345;28;20193;-69
2023/01/24 03:40:27;;;;;;;25.00;13.87;;;;;;;;;;5027723;28;20198;-68
2023/01/24 03:42:52;;;;;;;22.53;13.57;;;;;;;;;;5021364;28;20191;-69
2023/01/24 03:45:22;;;;;;;21.87;12.53;;;;;;;;;;5023990;28;20206;-68
2023/01/24 03:47:59;;;;;;;21.83;13.60;;;;;;;;;;5013279;28;20190;-69
2023/01/24 03:53:11;;;;;;;21.90;13.50;;;;;;;;;;5024608;28;20193;-68
2023/01/24 03:55:37;;;;;;;23.33;14.47;;;;;;;;;;5026864;28;20642;-68
2023/01/24 03:58:03;;;;;;;22.80;13.90;;;;;;;;;;5015881;28;20194;-68
2023/01/24 04:00:29;;;;;;;20.23;13.00;;;;;;;;;;5025221;28;20202;-68
2023/01/24 04:02:54;;;;;;;24.53;14.33;;;;;;;;;;5026959;28;20193;-69
2023/01/24 04:05:20;;;;;;;23.97;14.00;;;;;;;;;;5024776;28;20281;-68
2023/01/24 04:07:47;;;;;;;23.93;13.90;;;;;;;;;;5028792;28;20240;-69
2023/01/24 04:10:13;;;;;;;24.47;13.40;;;;;;;;;;5037266;28;20217;-69
2023/01/24 04:12:43;;;;;;;25.17;13.17;;;;;;;;;;5031239;28;20208;-69
2023/01/24 04:15:11;;;;;;;21.53;12.93;;;;;;;;;;5031858;28;20193;-70
2023/01/24 04:17:37;;;;;;;25.17;13.60;;;;;;;;;;5037828;28;20552;-69
2023/01/24 04:20:02;;;;;;;23.30;13.57;;;;;;;;;;5023601;28;20187;-70
2023/01/24 04:22:28;;;;;;;24.03;13.93;;;;;;;;;;5019702;28;20232;-69
2023/01/24 04:24:53;;;;;;;20.63;12.30;;;;;;;;;;5029697;28;21148;-69
2023/01/24 04:27:18;;;;;;;21.87;13.40;;;;;;;;;;5024727;28;20486;-69
2023/01/24 04:29:44;;;;;;;22.90;13.03;;;;;;;;;;5014910;28;20771;-70
2023/01/24 04:32:10;;;;;;;22.23;13.53;;;;;;;;;;5020264;28;20222;-69
2023/01/24 04:34:35;;;;;;;21.90;13.37;;;;;;;;;;5027611;28;20182;-69
2023/01/24 04:37:00;;;;;;;23.03;13.90;;;;;;;;;;5024111;28;20292;-70
2023/01/24 04:39:26;;;;;;;22.20;14.00;;;;;;;;;;5024926;28;20194;-69
2023/01/24 04:41:51;;;;;;;22.27;13.67;;;;;;;;;;5021620;28;20187;-69
2023/01/24 04:44:16;;;;;;;22.63;14.10;;;;;;;;;;5026053;28;20219;-69
2023/01/24 04:46:42;;;;;;;23.77;13.77;;;;;;;;;;5021878;28;20570;-70
2023/01/24 04:49:07;;;;;;;21.43;13.63;;;;;;;;;;5026909;28;20186;-69
2023/01/24 04:51:33;;;;;;;22.03;12.93;;;;;;;;;;5023943;28;20209;-69
2023/01/24 04:53:58;;;;;;;22.20;13.83;;;;;;;;;;5026330;28;20624;-69
2023/01/24 04:56:24;;;;;;;22.83;14.27;;;;;;;;;;5022740;28;20183;-69
2023/01/24 04:58:49;;;;;;;24.10;14.63;;;;;;;;;;5019540;28;20214;-69
2023/01/24 05:01:14;;;;;;;23.87;13.80;;;;;;;;;;5022325;28;20236;-69
2023/01/24 05:03:40;;;;;;;26.03;14.17;;;;;;;;;;5030101;28;20276;-69
2023/01/24 05:06:05;;;;;;;24.60;14.27;;;;;;;;;;5021550;28;20190;-69
2023/01/24 05:08:30;;;;;;;23.93;14.30;;;;;;;;;;5032482;28;20333;-69
2023/01/24 05:11:00;;;;;;;23.97;13.90;;;;;;;;;;5026920;28;20232;-69
2023/01/24 05:13:25;;;;;;;24.53;14.30;;;;;;;;;;5029168;28;20285;-69
2023/01/24 05:15:51;;;;;;;24.13;13.67;;;;;;;;;;5032644;28;20288;-69
2023/01/24 05:18:17;;;;;;;25.17;14.03;;;;;;;;;;5023861;28;20265;-69
2023/01/24 05:20:43;;;;;;;22.80;13.63;;;;;;;;;;5025731;28;20218;-69
2023/01/24 05:23:09;;;;;;;25.30;14.27;;;;;;;;;;5022650;28;20194;-70
2023/01/24 05:25:34;;;;;;;21.60;13.40;;;;;;;;;;5026738;28;20243;-69
2023/01/24 05:27:59;;;;;;;24.17;13.57;;;;;;;;;;5019162;28;20194;-69
2023/01/24 05:30:25;;;;;;;21.57;12.83;;;;;;;;;;5021356;28;20304;-69
2023/01/24 05:32:50;;;;;;;21.87;12.87;;;;;;;;;;5023700;28;20668;-69
2023/01/24 05:35:15;;;;;;;20.97;12.23;;;;;;;;;;5036017;28;20182;-69
2023/01/24 05:37:41;;;;;;;21.63;12.37;;;;;;;;;;5022955;28;20199;-69
2023/01/24 05:40:08;;;;;;;20.03;12.03;;;;;;;;;;5023429;28;20518;-70
2023/01/24 05:42:33;;;;;;;22.43;12.40;;;;;;;;;;5026344;28;20263;-68
2023/01/24 05:44:58;;;;;;;19.73;12.40;;;;;;;;;;5025964;28;20190;-68
2023/01/24 05:47:24;;;;;;;21.03;12.03;;;;;;;;;;5023955;28;20194;-68
2023/01/24 05:49:49;;;;;;;23.17;12.10;;;;;;;;;;5025560;28;20273;-68
2023/01/24 05:52:20;;;;;;;21.17;12.83;;;;;;;;;;5018455;28;20575;-68
2023/01/24 05:54:50;;;;;;;21.13;12.53;;;;;;;;;;5024858;28;20192;-68
2023/01/24 05:57:16;;;;;;;20.97;12.90;;;;;;;;;;5020344;28;20190;-68
2023/01/24 05:59:41;;;;;;;20.87;12.53;;;;;;;;;;5012833;28;20229;-68
2023/01/24 06:02:07;;;;;;;21.30;12.87;;;;;;;;;;5019422;28;20556;-68
2023/01/24 06:04:32;;;;;;;20.80;12.60;;;;;;;;;;5020870;28;20564;-68
2023/01/24 06:06:58;;;;;;;20.40;12.53;;;;;;;;;;4997095;28;20556;-68
2023/01/24 06:09:23;;;;;;;21.60;12.40;;;;;;;;;;5023777;28;20197;-68
2023/01/24 06:11:49;;;;;;;20.53;12.73;;;;;;;;;;5028638;28;20214;-68
2023/01/24 06:14:14;;;;;;;20.53;12.60;;;;;;;;;;5018969;28;20523;-68
2023/01/24 06:16:42;;;;;;;20.50;12.87;;;;;;;;;;5020226;28;20265;-69
2023/01/24 06:19:12;;;;;;;21.17;12.27;;;;;;;;;;5029673;28;20186;-67
2023/01/24 06:21:49;;;;;;;24.27;13.60;;;;;;;;;;5031437;28;20189;-68
2023/01/24 06:24:26;;;;;;;21.80;13.50;;;;;;;;;;5030903;28;21827;-68
2023/01/24 06:26:52;;;;;;;20.97;12.10;;;;;;;;;;5029845;28;20236;-68
2023/01/24 06:29:19;;;;;;;21.77;13.17;;;;;;;;;;5034943;28;20197;-68
2023/01/24 06:32:12;;;;;;;21.77;13.67;;;;;;;;;;5027282;28;20214;-68
2023/01/24 06:34:56;;;;;;;22.63;13.63;;;;;;;;;;5023366;28;20202;-68
2023/01/24 06:37:36;;;;;;;21.43;13.17;;;;;;;;;;5020508;28;20190;-68
2023/01/24 06:40:07;;;;;;;23.63;13.23;;;;;;;;;;5026913;28;20174;-68
2023/01/24 06:42:32;;;;;;;21.97;13.10;;;;;;;;;;5023283;28;20296;-68
2023/01/24 06:44:58;;;;;;;20.83;13.17;;;;;;;;;;5026514;28;20650;-69
2023/01/24 06:47:25;;;;;;;23.87;13.77;;;;;;;;;;5029204;28;20695;-68
2023/01/24 06:49:50;;;;;;;22.43;13.80;;;;;;;;;;5031863;28;20663;-68
2023/01/24 06:52:15;;;;;;;21.60;14.23;;;;;;;;;;5029074;28;20191;-68
2023/01/24 06:54:41;;;;;;;22.00;13.80;;;;;;;;;;5027420;28;20281;-68
2023/01/24 06:57:06;;;;;;;23.67;13.73;;;;;;;;;;5029219;28;20186;-70
2023/01/24 06:59:32;;;;;;;23.43;14.23;;;;;;;;;;5027352;28;20201;-69
2023/01/24 07:01:57;;;;;;;22.67;13.90;;;;;;;;;;5020961;28;20549;-68
2023/01/24 07:04:22;;;;;;;22.63;13.77;;;;;;;;;;5016496;28;20646;-68
2023/01/24 07:06:52;;;;;;;21.40;13.57;;;;;;;;;;5008645;28;20187;-68
2023/01/24 07:09:18;;;;;;;22.87;13.67;;;;;;;;;;5035486;28;20312;-69
2023/01/24 07:11:43;;;;;;;22.07;12.97;;;;;;;;;;5029026;28;20230;-68
2023/01/24 07:14:09;;;;;;;23.07;13.17;;;;;;;;;;5027115;28;20194;-69
2023/01/24 07:16:34;;;;;;;20.27;13.10;;;;;;;;;;5041229;28;20222;-69
2023/01/24 07:19:00;;;;;;;22.87;12.90;;;;;;;;;;5038494;28;20669;-69
2023/01/24 07:21:25;;;;;;;21.97;12.20;;;;;;;;;;5027912;28;20273;-69
2023/01/24 07:23:56;;;;;;;21.27;13.37;;;;;;;;;;5038727;28;20730;-69
2023/01/24 07:26:21;;;;;;;19.50;12.17;;;;;;;;;;5031369;28;20228;-69
2023/01/24 07:28:47;;;;;;;18.30;11.20;;;;;;;;;;5036915;28;20193;-70
2023/01/24 07:31:14;;;;;;;20.23;11.63;;;;;;;;;;5026905;28;20215;-70
2023/01/24 07:33:40;;;;;;;18.10;11.03;;;;;;;;;;5033087;28;20191;-69
2023/01/24 07:36:16;;;;;;;19.37;11.43;;;;;;;;;;5036016;28;20186;-69
2023/01/24 07:38:41;;;;;;;19.23;11.30;;;;;;;;;;5033949;28;20510;-69
2023/01/24 07:41:10;;;;;;;19.60;11.37;;;;;;;;;;5024057;28;20236;-69
2023/01/24 07:43:36;;;;;;;18.43;11.60;;;;;;;;;;5032930;28;20186;-69
2023/01/24 07:46:01;;;;;;;18.47;11.53;;;;;;;;;;5037142;28;20240;-69
2023/01/24 07:48:26;;;;;;;19.73;11.83;;;;;;;;;;5032839;28;20205;-70
2023/01/24 07:50:52;;;;;;;18.70;10.83;;;;;;;;;;5026469;28;20305;-69
2023/01/24 07:53:17;;;;;;;21.17;11.70;;;;;;;;;;5026466;28;20204;-69
2023/01/24 07:55:42;;;;;;;19.23;11.30;;;;;;;;;;5026117;28;20203;-69
2023/01/24 07:58:08;;;;;;;20.43;11.73;;;;;;;;;;5033947;28;20543;-67
2023/01/24 08:00:33;;;;;;;18.70;11.87;;;;;;;;;;5023633;28;20231;-70
2023/01/24 08:02:58;;;;;;;19.50;12.10;;;;;;;;;;5028073;28;20280;-70
2023/01/24 08:05:24;;;;;;;17.23;11.30;;;;;;;;;;5020849;28;20187;-69
2023/01/24 08:07:50;;;;;;;17.83;11.57;;;;;;;;;;5029313;28;20236;-69
2023/01/24 08:10:15;;;;;;;18.00;11.70;;;;;;;;;;5037706;28;20316;-68
2023/01/24 08:12:41;;;;;;;17.83;11.37;;;;;;;;;;5025426;28;20719;-68
2023/01/24 08:15:07;;;;;;;19.23;10.83;;;;;;;;;;5020452;28;20198;-68
2023/01/24 08:17:34;;;;;;;17.87;10.23;;;;;;;;;;5030284;28;20221;-69
2023/01/24 08:19:59;;;;;;;17.03;11.47;;;;;;;;;;5035620;28;20236;-69
2023/01/24 08:22:26;;;;;;;18.07;11.17;;;;;;;;;;5031416;28;20197;-69
2023/01/24 08:24:51;;;;;;;18.70;12.30;;;;;;;;;;5019713;28;20705;-71
2023/01/24 08:27:17;;;;;;;18.90;11.73;;;;;;;;;;5026298;28;20198;-69
2023/01/24 08:29:42;;;;;;;19.23;11.63;;;;;;;;;;5030059;28;20312;-69
2023/01/24 08:32:08;;;;;;;19.13;11.73;;;;;;;;;;5013386;28;20186;-69
2023/01/24 08:34:33;;;;;;;20.40;11.83;;;;;;;;;;5038768;28;20185;-69
2023/01/24 08:36:59;;;;;;;18.57;11.73;;;;;;;;;;5026524;28;20215;-69
2023/01/24 08:39:24;;;;;;;18.63;11.30;;;;;;;;;;5025403;28;20657;-69
2023/01/24 08:41:50;;;;;;;18.87;11.77;;;;;;;;;;5029752;28;20228;-69
2023/01/24 08:44:15;;;;;;;19.40;11.27;;;;;;;;;;5029083;28;20621;-69
2023/01/24 08:46:41;;;;;;;17.20;10.50;;;;;;;;;;5029208;28;20201;-70
2023/01/24 08:49:07;;;;;;;18.97;11.27;;;;;;;;;;5019001;28;20178;-69
2023/01/24 08:51:32;;;;;;;18.03;10.70;;;;;;;;;;5030091;28;20244;-69
2023/01/24 08:53:58;;;;;;;16.77;10.70;;;;;;;;;;5024510;28;20183;-69
2023/01/24 08:56:23;;;;;;;15.97;10.93;;;;;;;;;;5024784;28;20278;-69
2023/01/24 08:58:49;;;;;;;17.50;10.90;;;;;;;;;;5034011;28;20217;-69
2023/01/24 09:01:14;;;;;;;16.87;11.03;;;;;;;;;;5032967;28;20310;-69
2023/01/24 09:03:40;;;;;;;17.67;11.17;;;;;;;;;;5026487;28;20222;-70
2023/01/24 09:06:05;;;;;;;16.83;10.87;;;;;;;;;;5028113;28;20201;-69
2023/01/24 09:08:31;;;;;;;16.97;11.60;;;;;;;;;;5024184;28;20190;-68
2023/01/24 09:11:00;;;;;;;17.87;11.50;;;;;;;;;;5031378;28;20202;-69
2023/01/24 09:13:26;;;;;;;17.23;10.67;;;;;;;;;;5015321;28;20689;-69
2023/01/24 09:15:52;;;;;;;18.80;10.93;;;;;;;;;;5025416;28;20317;-69
2023/01/24 09:18:17;;;;;;;20.27;12.70;;;;;;;;;;5025214;28;20666;-69
2023/01/24 09:20:43;;;;;;;20.80;12.60;;;;;;;;;;5026819;28;20190;-69
2023/01/24 09:23:14;;;;;;;18.23;11.33;;;;;;;;;;5027053;28;20178;-69
2023/01/24 09:25:48;;;;;;;17.07;11.43;;;;;;;;;;5023977;28;20222;-69
2023/01/24 09:28:14;;;;;;;20.80;12.47;;;;;;;;;;5031776;28;20192;-69
2023/01/24 09:30:39;;;;;;;20.20;13.10;;;;;;;;;;5026292;28;20206;-69
2023/01/24 09:33:05;;;;;;;19.40;12.53;;;;;;;;;;5028440;28;20690;-69
2023/01/24 09:35:30;;;;;;;21.37;13.47;;;;;;;;;;5022369;28;20182;-69
2023/01/24 09:37:56;;;;;;;18.73;13.03;;;;;;;;;;5016587;28;20486;-69
2023/01/24 09:40:29;;;;;;;19.47;13.23;;;;;;;;;;5025437;28;20185;-69
2023/01/24 09:43:15;;;;;;;19.97;13.13;;;;;;;;;;5027972;28;20257;-69
2023/01/24 09:45:52;;;;;;;20.80;13.27;;;;;;;;;;5017632;28;20194;-68
2023/01/24 09:48:19;;;;;;;20.60;13.40;;;;;;;;;;5022421;28;20284;-69
2023/01/24 09:50:50;;;;;;;21.23;13.37;;;;;;;;;;5029229;28;20272;-69
2023/01/24 09:53:41;;;;;;;19.27;14.30;;;;;;;;;;5030304;28;20209;-68
2023/01/24 09:56:11;;;;;;;21.57;14.17;;;;;;;;;;5025321;28;20193;-69
2023/01/24 09:58:43;;;;;;;22.57;14.77;;;;;;;;;;5024630;28;20189;-69
2023/01/24 10:01:11;;;;;;;22.10;14.83;;;;;;;;;;5020951;28;20705;-68
2023/01/24 10:03:38;;;;;;;21.90;14.23;;;;;;;;;;5020283;28;20184;-69
2023/01/24 10:06:13;;;;;;;23.20;15.47;;;;;;;;;;5012485;28;20191;-69
2023/01/24 10:08:50;;;;;;;20.83;13.90;;;;;;;;;;5036115;28;20548;-69
2023/01/24 10:11:31;;;;;;;23.97;15.40;;;;;;;;;;4991606;28;20198;-69
2023/01/24 10:14:20;;;;;;;23.43;15.07;;;;;;;;;;5027405;28;20265;-69
2023/01/24 10:17:00;;;;;;;23.70;15.60;;;;;;;;;;5016137;28;20620;-69
2023/01/24 10:19:50;;;;;;;25.37;15.97;;;;;;;;;;5023431;28;20197;-68
2023/01/24 10:22:34;;;;;;;22.80;14.97;;;;;;;;;;5020640;28;20187;-69
2023/01/24 10:25:09;;;;;;;21.63;15.77;;;;;;;;;;5017759;28;20241;-69
2023/01/24 10:27:43;;;;;;;24.67;16.43;;;;;;;;;;5020580;28;20888;-70
2023/01/24 10:30:43;;;;;;;23.97;16.00;;;;;;;;;;5024324;28;20299;-68
2023/01/24 10:33:17;;;;;;;22.33;15.20;;;;;;;;;;4993990;28;20205;-68
2023/01/24 10:35:57;;;;;;;22.37;16.30;;;;;;;;;;5025952;28;20189;-68
2023/01/24 10:38:23;;;;;;;22.70;15.33;;;;;;;;;;5023051;28;20198;-68
2023/01/24 10:41:14;;;;;;;25.23;15.90;;;;;;;;;;5024471;28;20225;-69
2023/01/24 10:43:43;;;;;;;24.60;16.53;;;;;;;;;;5019170;28;20202;-68
2023/01/24 10:46:32;;;;;;;22.17;15.27;;;;;;;;;;5024303;28;20255;-68
2023/01/24 10:49:00;;;;;;;21.10;14.33;;;;;;;;;;5025453;28;20193;-69
2023/01/24 10:51:25;;;;;;;23.83;15.23;;;;;;;;;;5026865;28;20199;-69
2023/01/24 10:53:59;;;;;;;22.37;15.13;;;;;;;;;;5024686;28;20190;-69
2023/01/24 10:56:25;;;;;;;19.90;13.83;;;;;;;;;;5022463;28;20277;-68
2023/01/24 10:58:59;;;;;;;19.70;12.97;;;;;;;;;;5028401;28;20309;-69
2023/01/24 11:01:36;;;;;;;18.17;13.60;;;;;;;;;;5021944;28;20205;-69
2023/01/24 11:04:30;;;;;;;17.50;12.20;;;;;;;;;;5013701;28;20186;-69
2023/01/24 11:06:55;;;;;;;19.13;12.73;;;;;;;;;;5038297;28;20280;-68
2023/01/24 11:09:29;;;;;;;19.33;13.27;;;;;;;;;;5017086;28;20558;-69
2023/01/24 11:11:57;;;;;;;18.10;11.93;;;;;;;;;;5030124;28;20572;-69
2023/01/24 11:14:25;;;;;;;17.23;12.57;;;;;;;;;;5027095;28;20607;-68
2023/01/24 11:16:54;;;;;;;19.80;12.97;;;;;;;;;;5029228;28;20225;-69
2023/01/24 11:19:39;;;;;;;20.30;13.67;;;;;;;;;;5028760;28;20190;-69
2023/01/24 11:22:23;;;;;;;18.47;13.23;;;;;;;;;;5027576;28;20190;-69
2023/01/24 11:24:48;;;;;;;19.53;13.40;;;;;;;;;;5020007;28;20209;-69
2023/01/24 11:27:19;;;;;;;20.60;14.10;;;;;;;;;;5030741;28;20260;-69
2023/01/24 11:29:45;;;;;;;18.50;13.27;;;;;;;;;;5029783;28;20646;-69
2023/01/24 11:32:13;;;;;;;16.33;11.80;;;;;;;;;;5032194;28;20198;-69
2023/01/24 11:35:02;;;;;;;18.10;13.23;;;;;;;;;;5027017;28;20266;-68
2023/01/24 11:37:58;;;;;;;18.63;13.30;;;;;;;;;;5030278;28;20542;-68
2023/01/24 11:40:40;;;;;;;19.83;13.27;;;;;;;;;;5022836;28;20194;-69
2023/01/24 11:43:24;;;;;;;18.93;13.57;;;;;;;;;;5030682;28;20634;-69
2023/01/24 11:46:21;;;;;;;17.27;13.30;;;;;;;;;;5031426;28;20672;-67
2023/01/24 11:48:54;;;;;;;19.10;13.23;;;;;;;;;;5021660;28;20190;-68
2023/01/24 11:51:36;;;;;;;17.70;13.40;;;;;;;;;;5027919;28;20213;-68
2023/01/24 11:54:20;;;;;;;18.40;13.23;;;;;;;;;;5031519;28;20621;-68
2023/01/24 11:56:56;;;;;;;19.43;14.50;;;;;;;;;;5022701;28;20197;-69
2023/01/24 11:59:55;;;;;;;20.17;13.70;;;;;;;;;;5020203;28;20221;-69
2023/01/24 12:02:43;;;;;;;17.93;13.47;;;;;;;;;;5012133;28;20191;-70
2023/01/24 12:05:40;;;;;;;18.27;12.77;;;;;;;;;;5013652;28;20187;-69
2023/01/24 12:08:31;;;;;;;18.57;13.20;;;;;;;;;;5029238;28;20194;-69
2023/01/24 12:11:19;;;;;;;21.10;13.80;;;;;;;;;;5030786;28;20225;-69
2023/01/24 12:14:00;;;;;;;18.97;13.87;;;;;;;;;;5016398;28;20658;-69
2023/01/24 12:16:50;;;;;;;20.10;14.50;;;;;;;;;;5028762;28;20296;-69
2023/01/24 12:19:27;;;;;;;20.33;14.47;;;;;;;;;;5022759;28;20221;-69
2023/01/24 12:21:56;;;;;;;19.93;14.53;;;;;;;;;;5037755;28;20427;-68
2023/01/24 12:24:26;;;;;;;18.27;14.23;;;;;;;;;;5026951;28;20202;-68
2023/01/24 12:27:00;;;;;;;19.57;13.83;;;;;;;;;;5037369;28;20843;-68
2023/01/24 12:29:58;;;;;;;19.27;14.37;;;;;;;;;;5041448;28;20212;-68
2023/01/24 12:32:30;;;;;;;18.87;13.70;;;;;;;;;;5042611;28;20606;-69
2023/01/24 12:34:59;;;;;;;19.30;13.97;;;;;;;;;;5042288;28;20590;-69
2023/01/24 12:37:43;;;;;;;19.60;14.10;;;;;;;;;;5040691;28;20260;-68
2023/01/24 12:40:11;;;;;;;17.97;14.13;;;;;;;;;;5034877;28;20190;-68
2023/01/24 12:42:54;;;;;;;19.30;13.90;;;;;;;;;;5037670;28;20195;-68
2023/01/24 12:45:38;;;;;;;19.80;14.23;;;;;;;;;;5037805;28;20189;-68
2023/01/24 12:48:17;;;;;;;17.57;14.00;;;;;;;;;;5042030;28;20274;-69
2023/01/24 12:50:52;;;;;;;18.33;14.60;;;;;;;;;;5039715;28;20243;-69
2023/01/24 12:53:31;;;;;;;21.63;15.60;;;;;;;;;;5045184;28;20185;-68
2023/01/24 12:56:08;;;;;;;20.57;15.20;;;;;;;;;;5037059;28;20192;-68
2023/01/24 12:58:42;;;;;;;20.97;15.20;;;;;;;;;;5029608;28;20263;-68
2023/01/24 13:01:26;;;;;;;18.83;14.17;;;;;;;;;;5042370;28;20339;-68
2023/01/24 13:04:11;;;;;;;20.73;14.97;;;;;;;;;;5031601;28;20188;-68
2023/01/24 13:06:43;;;;;;;20.77;15.83;;;;;;;;;;5031307;28;20201;-68
2023/01/24 13:09:26;;;;;;;22.17;15.17;;;;;;;;;;5042458;28;20216;-69
2023/01/24 13:11:54;;;;;;;24.47;15.43;;;;;;;;;;5027699;28;20628;-69
2023/01/24 13:14:34;;;;;;;21.07;15.60;;;;;;;;;;5024091;28;20209;-68
2023/01/24 13:17:11;;;;;;;21.27;15.40;;;;;;;;;;5023545;28;20209;-68
2023/01/24 13:20:06;;;;;;;21.33;14.90;;;;;;;;;;5031090;28;20197;-69
2023/01/24 13:23:00;;;;;;;19.53;14.87;;;;;;;;;;5039011;28;20288;-69
2023/01/24 13:25:31;;;;;;;21.13;14.50;;;;;;;;;;5029891;28;20222;-68
2023/01/24 13:28:14;;;;;;;22.40;14.87;;;;;;;;;;5020933;28;20190;-70
2023/01/24 13:31:03;;;;;;;19.53;14.93;;;;;;;;;;5023106;28;20398;-69
2023/01/24 13:33:40;;;;;;;17.67;14.20;;;;;;;;;;5021326;28;20190;-69
2023/01/24 13:36:07;;;;;;;19.63;14.80;;;;;;;;;;5022138;28;20189;-69
2023/01/24 13:38:42;;;;;;;21.50;15.17;;;;;;;;;;5021348;28;20257;-69
2023/01/24 13:41:16;;;;;;;20.33;14.90;;;;;;;;;;5023432;28;20611;-69
2023/01/24 13:44:24;;;;;;;18.20;14.50;;;;;;;;;;5021103;28;20232;-69
2023/01/24 13:47:23;;;;;;;19.13;14.07;;;;;;;;;;5013879;28;20210;-69
2023/01/24 13:49:55;;;;;;;19.93;14.63;;;;;;;;;;5020214;28;20244;-69
2023/01/24 13:52:32;;;;;;;23.23;15.17;;;;;;;;;;5023533;28;20194;-69
2023/01/24 13:55:04;;;;;;;19.50;14.77;;;;;;;;;;5022641;28;20182;-69
2023/01/24 13:57:38;;;;;;;18.57;13.97;;;;;;;;;;5025983;28;20284;-69
2023/01/24 14:00:09;;;;;;;19.97;15.00;;;;;;;;;;5038221;28;20702;-69
2023/01/24 14:02:39;;;;;;;19.40;14.23;;;;;;;;;;5035648;28;20208;-69
2023/01/24 14:05:27;;;;;;;18.83;14.83;;;;;;;;;;5032524;28;20276;-69
2023/01/24 14:07:54;;;;;;;18.57;14.57;;;;;;;;;;5034480;28;20185;-69
2023/01/24 14:10:32;;;;;;;17.23;14.13;;;;;;;;;;5023841;28;20205;-69
2023/01/24 14:12:58;;;;;;;16.57;13.67;;;;;;;;;;5024298;28;20634;-69
2023/01/24 14:15:26;;;;;;;18.50;14.40;;;;;;;;;;5015200;28;20191;-69
2023/01/24 14:17:51;;;;;;;19.27;14.10;;;;;;;;;;5017808;28;20194;-69
2023/01/24 14:20:44;;;;;;;18.27;14.23;;;;;;;;;;5028277;28;20279;-68
2023/01/24 14:23:20;;;;;;;19.80;13.83;;;;;;;;;;5022197;28;20229;-68
2023/01/24 14:25:50;;;;;;;17.90;13.80;;;;;;;;;;5017573;28;20604;-68
2023/01/24 14:28:51;;;;;;;17.17;13.73;;;;;;;;;;5022539;28;20218;-68
2023/01/24 14:31:49;;;;;;;18.27;14.43;;;;;;;;;;5020461;28;20245;-68
2023/01/24 14:34:24;;;;;;;20.33;14.90;;;;;;;;;;5033962;28;20560;-69
2023/01/24 14:37:00;;;;;;;20.33;14.30;;;;;;;;;;5028512;28;20213;-69
2023/01/24 14:39:26;;;;;;;18.23;13.77;;;;;;;;;;5024703;28;20304;-68
2023/01/24 14:41:55;;;;;;;17.33;13.50;;;;;;;;;;5016298;28;20191;-69
2023/01/24 14:44:33;;;;;;;17.37;13.70;;;;;;;;;;5027794;28;20609;-68
2023/01/24 14:47:01;;;;;;;22.50;14.53;;;;;;;;;;5026595;28;20317;-68
2023/01/24 14:49:33;;;;;;;20.13;14.23;;;;;;;;;;5019525;28;20600;-68
2023/01/24 14:51:59;;;;;;;18.90;15.03;;;;;;;;;;5021321;28;20221;-68
2023/01/24 14:54:24;;;;;;;17.70;13.97;;;;;;;;;;5022827;28;20649;-69
2023/01/24 14:56:50;;;;;;;17.87;14.33;;;;;;;;;;5035655;28;20209;-69
2023/01/24 14:59:21;;;;;;;17.37;14.53;;;;;;;;;;5027751;28;20645;-68
2023/01/24 15:01:52;;;;;;;18.97;14.27;;;;;;;;;;5030647;28;20682;-69
2023/01/24 15:04:29;;;;;;;17.73;13.50;;;;;;;;;;5012591;28;20577;-68
2023/01/24 15:07:13;;;;;;;18.20;14.00;;;;;;;;;;5030063;28;20185;-68
2023/01/24 15:09:40;;;;;;;16.40;12.73;;;;;;;;;;5021100;28;20324;-68
2023/01/24 15:12:12;;;;;;;17.27;13.27;;;;;;;;;;5019233;28;20199;-68